Time;durP1;ratioP1;P1;durP2;ratioP2;P2;SDS_P1;SDS_P2;PMS_P1;PMS_P2;Temp;Humidity;BMP_temperature;BMP_pressure;BME280_temperature;BME280_humidity;BME280_pressure;Samples;Min_cycle;Max_cycle;Signal;HPM_P1;HPM_P2
2022/06/21 00:00:11;;;;;;;6.18;2.10;;;;;;;18.09;55.19;93609.81;5083105;28;20024;-91
2022/06/21 00:02:37;;;;;;;4.00;2.45;;;;;;;18.05;55.25;93614.38;5081931;28;20027;-89
2022/06/21 00:05:03;;;;;;;3.75;2.15;;;;;;;18.00;55.55;93604.69;5083148;28;20016;-92
2022/06/21 00:07:30;;;;;;;6.00;2.30;;;;;;;17.96;56.05;93611.19;5082693;28;20378;-91
2022/06/21 00:09:55;;;;;;;3.63;2.22;;;;;;;17.95;56.30;93607.72;5083052;28;20235;-91
2022/06/21 00:12:22;;;;;;;6.40;2.30;;;;;;;17.98;56.19;93606.97;5082889;28;20048;-91
2022/06/21 00:14:48;;;;;;;4.35;2.15;;;;;;;17.90;56.09;93599.94;5085118;28;20047;-91
2022/06/21 00:17:18;;;;;;;4.38;2.58;;;;;;;17.87;56.30;93591.81;5086414;28;20016;-90
2022/06/21 00:19:44;;;;;;;4.55;2.50;;;;;;;17.91;56.58;93603.41;5086726;28;20020;-90
2022/06/21 00:22:17;;;;;;;4.82;2.97;;;;;;;17.84;56.94;93601.41;5086631;28;20020;-90
2022/06/21 00:24:43;;;;;;;4.28;2.20;;;;;;;17.83;56.83;93600.63;5086529;28;20016;-90
2022/06/21 00:27:17;;;;;;;5.53;2.20;;;;;;;17.73;57.42;93598.53;5086208;28;20111;-91
2022/06/21 00:29:43;;;;;;;6.40;2.67;;;;;;;17.73;57.21;93601.25;5086485;28;20032;-91
2022/06/21 00:32:12;;;;;;;8.10;2.92;;;;;;;17.67;57.92;93589.22;5086674;28;20051;-91
2022/06/21 00:34:38;;;;;;;5.28;2.67;;;;;;;17.69;58.22;93586.94;5086397;28;20017;-92
2022/06/21 00:37:04;;;;;;;4.10;2.40;;;;;;;17.69;58.08;93586.13;5086553;28;20091;-90
2022/06/21 00:39:30;;;;;;;5.40;2.60;;;;;;;17.67;58.00;93591.91;5086184;28;20373;-90
2022/06/21 00:42:04;;;;;;;3.95;2.42;;;;;;;17.61;57.99;93590.69;5086182;28;20020;-91
2022/06/21 00:44:41;;;;;;;5.82;2.67;;;;;;;17.60;58.45;93592.56;5086326;28;20020;-90
2022/06/21 00:47:16;;;;;;;5.90;2.65;;;;;;;17.56;58.75;93591.75;5085068;28;20064;-90
2022/06/21 00:49:56;;;;;;;4.25;2.60;;;;;;;17.53;58.85;93586.31;5086360;28;20024;-91
2022/06/21 00:52:33;;;;;;;4.38;2.05;;;;;;;17.50;58.81;93595.13;5085943;28;20026;-91
2022/06/21 00:55:12;;;;;;;3.60;2.50;;;;;;;17.45;58.93;93593.53;5086016;28;20315;-91
2022/06/21 00:57:52;;;;;;;6.60;2.90;;;;;;;17.40;58.83;93588.44;5085837;28;20036;-91
2022/06/21 01:00:30;;;;;;;5.57;2.78;;;;;;;17.35;59.40;93583.38;5085680;28;20024;-89
2022/06/21 01:02:57;;;;;;;4.80;2.88;;;;;;;17.30;59.72;93584.47;5085948;28;20016;-90
2022/06/21 01:05:27;;;;;;;4.10;2.83;;;;;;;17.25;59.76;93580.13;5086099;28;20024;-90
2022/06/21 01:07:55;;;;;;;8.25;2.75;;;;;;;17.26;60.06;93589.03;5084609;28;20049;-90
2022/06/21 01:10:23;;;;;;;4.25;3.00;;;;;;;17.23;60.29;93576.25;5085817;28;20028;-90
2022/06/21 01:12:55;;;;;;;7.15;2.70;;;;;;;17.24;60.29;93577.81;5084601;28;20068;-89
2022/06/21 01:15:26;;;;;;;9.93;3.05;;;;;;;17.19;60.38;93581.59;5085498;28;20032;-90
2022/06/21 01:17:59;;;;;;;4.22;3.00;;;;;;;17.19;60.45;93586.19;5085531;28;20149;-90
2022/06/21 01:20:28;;;;;;;3.97;2.67;;;;;;;17.18;60.79;93595.44;5084597;28;20031;-91
2022/06/21 01:23:08;;;;;;;4.95;2.95;;;;;;;17.14;60.60;93583.81;5085570;28;20024;-90
2022/06/21 01:26:13;;;;;;;8.63;3.10;;;;;;;17.12;60.67;93584.19;5084608;28;20029;-90
2022/06/21 01:28:39;;;;;;;5.35;3.28;;;;;;;17.05;60.99;93590.22;5084256;28;20204;-90
2022/06/21 01:31:05;;;;;;;5.95;2.90;;;;;;;17.04;59.34;93588.66;5085550;28;20083;-90
2022/06/21 01:33:37;;;;;;;5.82;2.83;;;;;;;17.04;59.55;93585.97;5085187;28;20024;-91
2022/06/21 01:36:13;;;;;;;7.00;3.17;;;;;;;17.03;60.29;93592.47;5085206;28;20358;-90
2022/06/21 01:38:45;;;;;;;4.30;2.50;;;;;;;16.97;60.52;93588.53;5085471;28;20021;-90
2022/06/21 01:41:16;;;;;;;5.65;3.53;;;;;;;17.04;60.21;93599.44;5085339;28;20082;-90
2022/06/21 01:43:45;;;;;;;5.18;2.78;;;;;;;17.06;60.43;93585.63;5085038;28;20020;-91
2022/06/21 01:46:17;;;;;;;6.95;3.38;;;;;;;17.08;60.52;93587.97;5083773;28;20028;-91
2022/06/21 01:48:57;;;;;;;4.22;2.92;;;;;;;17.05;60.60;93590.22;5084856;28;20048;-90
2022/06/21 01:51:31;;;;;;;4.95;2.92;;;;;;;17.00;60.63;93595.91;5084959;28;20025;-89
2022/06/21 01:53:58;;;;;;;9.05;3.20;;;;;;;16.95;60.97;93601.59;5085109;28;20028;-89
2022/06/21 01:56:28;;;;;;;7.20;3.05;;;;;;;16.98;61.30;93590.09;5084563;28;20282;-90
2022/06/21 01:59:04;;;;;;;6.05;3.13;;;;;;;16.97;61.56;93596.63;5084741;28;20064;-90
2022/06/21 02:01:40;;;;;;;4.80;2.88;;;;;;;16.93;61.60;93590.41;5084682;28;20074;-89
2022/06/21 02:04:09;;;;;;;5.32;2.92;;;;;;;16.89;61.71;93600.31;5084917;28;20024;-90
2022/06/21 02:06:41;;;;;;;6.35;3.47;;;;;;;16.86;61.76;93603.75;5084882;28;20028;-90
2022/06/21 02:09:14;;;;;;;7.22;2.90;;;;;;;16.84;61.61;93600.63;5084884;28;20028;-90
2022/06/21 02:11:49;;;;;;;5.60;3.88;;;;;;;16.82;61.78;93602.91;5084627;28;20024;-89
2022/06/21 02:14:30;;;;;;;5.82;3.47;;;;;;;16.79;62.12;93603.59;5084761;28;20027;-89
2022/06/21 02:17:27;;;;;;;6.45;3.40;;;;;;;16.77;62.46;93600.47;5084445;28;20106;-90
2022/06/21 02:20:01;;;;;;;4.65;2.90;;;;;;;16.72;61.82;93606.16;5081823;28;20039;-90
2022/06/21 02:22:29;;;;;;;6.88;3.10;;;;;;;16.70;62.07;93606.50;5084337;28;20020;-89
2022/06/21 02:24:55;;;;;;;4.22;3.22;;;;;;;16.65;61.70;93593.38;5084232;28;20020;-89
2022/06/21 02:27:25;;;;;;;6.95;3.72;;;;;;;16.62;61.80;93592.16;5083907;28;20032;-90
2022/06/21 02:29:54;;;;;;;4.15;3.05;;;;;;;16.58;61.54;93580.53;5084231;28;20024;-90
2022/06/21 02:32:29;;;;;;;5.07;3.17;;;;;;;16.55;61.40;93581.28;5083949;28;20087;-89
2022/06/21 02:35:18;;;;;;;6.05;3.47;;;;;;;16.57;61.98;93591.69;5084145;28;20030;-90
2022/06/21 02:37:46;;;;;;;9.63;3.78;;;;;;;16.52;62.32;93584.66;5084038;28;20051;-90
2022/06/21 02:40:18;;;;;;;7.15;4.22;;;;;;;16.51;62.21;93577.75;5083806;28;20024;-90
2022/06/21 02:42:45;;;;;;;;;;;;;;;16.48;62.86;93585.75;5084236;28;20024;-89
2022/06/21 02:45:29;;;;;;;9.80;4.43;;;;;;;16.39;62.89;93583.28;5083717;28;19904;-90
2022/06/21 02:47:59;;;;;;;7.35;4.20;;;;;;;16.33;63.26;93585.47;5083633;28;20044;-90
2022/06/21 02:50:50;;;;;;;11.48;4.68;;;;;;;16.35;63.41;93588.59;5083933;28;20039;-90
2022/06/21 02:53:54;;;;;;;7.82;4.18;;;;;;;16.32;63.64;93575.06;5083618;28;20150;-89
2022/06/21 02:56:30;;;;;;;12.60;4.55;;;;;;;16.29;63.81;93586.56;5083545;28;20142;-90
2022/06/21 02:58:58;;;;;;;10.90;4.80;;;;;;;16.28;63.96;93577.69;5082672;28;20199;-90
2022/06/21 03:01:32;;;;;;;7.93;4.53;;;;;;;16.30;64.32;93574.66;5083517;28;20030;-91
2022/06/21 03:03:59;;;;;;;5.80;3.72;;;;;;;16.34;64.46;93581.63;5082415;28;20310;-90
2022/06/21 03:06:27;;;;;;;5.82;3.88;;;;;;;16.36;64.70;93582.06;5083698;28;20192;-89
2022/06/21 03:09:00;;;;;;;5.72;3.63;;;;;;;16.40;64.94;93571.38;5083536;28;20030;-90
2022/06/21 03:11:29;;;;;;;11.80;3.85;;;;;;;16.41;64.36;93564.88;5083535;28;20032;-90
2022/06/21 03:13:56;;;;;;;7.93;3.08;;;;;;;16.42;64.54;93566.41;5083493;28;20099;-89
2022/06/21 03:16:22;;;;;;;7.68;3.75;;;;;;;16.45;64.40;93565.72;5083235;28;20028;-90
2022/06/21 03:18:53;;;;;;;5.68;4.10;;;;;;;16.46;64.11;93572.63;5083176;28;20319;-89
2022/06/21 03:21:26;;;;;;;9.77;3.40;;;;;;;16.47;64.11;93562.69;5082089;28;20026;-90
2022/06/21 03:23:52;;;;;;;5.75;3.78;;;;;;;16.47;64.29;93563.44;5083043;28;20253;-90
2022/06/21 03:26:18;;;;;;;6.22;3.30;;;;;;;16.50;64.74;93557.34;5082959;28;20061;-91
2022/06/21 03:28:45;;;;;;;7.30;3.42;;;;;;;16.55;64.66;93559.75;5082956;28;20024;-90
2022/06/21 03:31:18;;;;;;;7.10;3.83;;;;;;;16.56;64.49;93561.28;5083290;28;20024;-89
2022/06/21 03:33:47;;;;;;;8.73;3.90;;;;;;;16.60;63.98;93567.50;5083299;28;20034;-89
2022/06/21 03:36:16;;;;;;;8.18;4.35;;;;;;;16.68;63.92;93567.66;5082905;28;20024;-90
2022/06/21 03:38:54;;;;;;;7.78;4.47;;;;;;;16.71;63.25;93558.84;5083238;28;20090;-89
2022/06/21 03:44:23;;;;;;;9.45;4.20;;;;;;;16.79;62.75;93572.09;5082870;28;20023;-90
2022/06/21 03:47:07;;;;;;;11.07;4.55;;;;;;;16.83;62.12;93578.34;5082738;28;20039;-90
2022/06/21 03:49:38;;;;;;;7.05;3.70;;;;;;;16.89;62.52;93578.78;5084023;28;20028;-89
2022/06/21 03:52:10;;;;;;;7.20;3.43;;;;;;;16.98;63.34;93592.81;5087145;28;20054;-90
2022/06/21 03:54:44;;;;;;;6.53;3.90;;;;;;;17.05;62.27;93587.50;5087058;28;20282;-89
2022/06/21 03:57:30;;;;;;;11.05;5.10;;;;;;;17.04;61.90;93591.34;5086992;28;20016;-90
2022/06/21 04:00:09;;;;;;;15.38;5.38;;;;;;;17.07;61.39;93589.09;5086911;28;20077;-90
2022/06/21 04:02:44;;;;;;;7.28;4.57;;;;;;;17.10;61.25;93596.47;5085915;28;20310;-90
2022/06/21 04:05:40;;;;;;;10.57;4.60;;;;;;;17.12;61.11;93599.56;5087039;28;20223;-90
2022/06/21 04:08:23;;;;;;;9.95;4.72;;;;;;;17.17;62.09;93580.41;5086221;28;20096;-90
2022/06/21 04:11:06;;;;;;;11.30;4.72;;;;;;;17.21;61.51;93581.22;5086656;28;20058;-90
2022/06/21 04:13:56;;;;;;;7.50;3.85;;;;;;;17.30;61.59;93575.59;5086779;28;20036;-90
2022/06/21 04:16:36;;;;;;;15.57;4.43;;;;;;;17.37;62.11;93575.69;5086683;28;20016;-89
2022/06/21 04:19:35;;;;;;;13.85;5.68;;;;;;;17.49;61.96;93577.41;5086790;28;20021;-90
2022/06/21 04:22:24;;;;;;;11.25;4.30;;;;;;;17.55;61.07;93571.34;5084878;28;20055;-90
2022/06/21 04:24:54;;;;;;;8.57;4.75;;;;;;;17.61;60.72;93577.19;5086565;28;20024;-89
2022/06/21 04:27:29;;;;;;;6.55;4.10;;;;;;;17.70;60.42;93577.69;5086424;28;20025;-90
2022/06/21 04:30:04;;;;;;;18.20;4.85;;;;;;;17.71;59.75;93562.28;5085393;28;20033;-90
2022/06/21 04:32:33;;;;;;;7.50;4.70;;;;;;;17.80;59.38;93565.50;5086449;28;20031;-90
2022/06/21 04:35:43;;;;;;;15.57;5.35;;;;;;;17.83;59.53;93554.81;5086373;28;20036;-91
2022/06/21 04:38:23;;;;;;;18.58;5.15;;;;;;;17.85;59.50;93554.44;5083795;28;20227;-91
2022/06/21 04:40:57;;;;;;;9.98;4.70;;;;;;;17.89;59.27;93549.06;5085324;28;20122;-90
2022/06/21 04:43:36;;;;;;;14.20;4.85;;;;;;;17.95;59.91;93561.09;5086244;28;20058;-89
2022/06/21 04:46:39;;;;;;;10.48;6.07;;;;;;;18.03;60.24;93558.13;5086270;28;20025;-90
2022/06/21 04:49:22;;;;;;;15.43;4.85;;;;;;;18.02;60.25;93561.19;5084907;28;20040;-90
2022/06/21 04:51:53;;;;;;;10.77;5.05;;;;;;;18.13;60.21;93562.09;5086060;28;20021;-90
2022/06/21 04:54:25;;;;;;;19.90;5.78;;;;;;;18.21;59.55;93569.09;5086044;28;20021;-90
2022/06/21 04:57:06;;;;;;;12.10;5.13;;;;;;;18.34;59.31;93575.06;5086161;28;20023;-91
2022/06/21 04:59:39;;;;;;;12.88;5.18;;;;;;;18.46;59.30;93579.44;5086162;28;20025;-91
2022/06/21 05:02:10;;;;;;;11.77;5.93;;;;;;;18.57;57.95;93588.41;5084961;28;20039;-92
2022/06/21 05:04:39;;;;;;;11.55;6.40;;;;;;;18.56;58.50;93584.16;5086216;28;20048;-92
2022/06/21 05:07:14;;;;;;;15.63;6.85;;;;;;;18.49;58.04;93583.31;5085845;28;20025;-90
2022/06/21 05:09:42;;;;;;;10.27;6.68;;;;;;;18.53;57.70;93595.69;5085910;28;20024;-90
2022/06/21 05:12:16;;;;;;;17.77;6.38;;;;;;;18.47;58.10;93607.94;5085762;28;20028;-90
2022/06/21 05:14:48;;;;;;;18.17;6.80;;;;;;;18.40;59.04;93608.66;5085921;28;20099;-90
2022/06/21 05:17:18;;;;;;;18.23;7.65;;;;;;;18.42;59.50;93617.16;5085755;28;20024;-91
2022/06/21 05:19:49;;;;;;;15.10;8.43;;;;;;;18.35;60.41;93611.66;5085472;28;20028;-89
2022/06/21 05:22:16;;;;;;;15.00;7.65;;;;;;;18.27;60.01;93614.66;5085777;28;20353;-90
2022/06/21 05:24:44;;;;;;;16.27;7.95;;;;;;;18.27;60.73;93620.06;5085606;28;20028;-89
2022/06/21 05:27:15;;;;;;;11.02;7.72;;;;;;;18.31;59.66;93610.84;5085540;28;20024;-91
2022/06/21 05:30:05;;;;;;;13.30;7.27;;;;;;;18.33;59.54;93613.94;5085520;28;20016;-92
2022/06/21 05:32:45;;;;;;;22.20;8.35;;;;;;;18.45;59.96;93611.00;5085338;28;20468;-90
2022/06/21 05:35:21;;;;;;;20.98;7.60;;;;;;;18.51;59.61;93610.69;5085382;28;20028;-90
2022/06/21 05:38:09;;;;;;;14.40;7.72;;;;;;;18.52;59.46;93604.94;5085318;28;20051;-89
2022/06/21 05:41:00;;;;;;;17.27;8.70;;;;;;;18.62;59.75;93604.28;5083240;28;20319;-91
2022/06/21 05:43:39;;;;;;;19.48;8.20;;;;;;;18.71;59.27;93600.50;5082127;28;20082;-90
2022/06/21 05:46:16;;;;;;;14.15;7.38;;;;;;;18.68;59.56;93601.22;5084859;28;20031;-90
2022/06/21 05:48:43;;;;;;;18.48;7.57;;;;;;;18.66;58.60;93604.28;5086004;28;20052;-91
2022/06/21 05:51:19;;;;;;;13.38;7.82;;;;;;;18.74;58.81;93599.75;5086854;28;20020;-90
2022/06/21 05:53:50;;;;;;;16.83;8.30;;;;;;;18.86;58.15;93607.59;5086841;28;20028;-91
2022/06/21 05:56:21;;;;;;;16.85;8.02;;;;;;;18.99;58.03;93594.59;5086020;28;20031;-90
2022/06/21 05:58:54;;;;;;;23.70;8.70;;;;;;;19.08;58.27;93597.78;5085249;28;20027;-91
2022/06/21 06:01:30;;;;;;;20.23;8.68;;;;;;;19.23;58.45;93590.56;5085188;28;20282;-91
2022/06/21 06:04:08;;;;;;;14.27;8.13;;;;;;;19.30;57.68;93593.31;5084964;28;20080;-90
2022/06/21 06:06:36;;;;;;;17.63;9.40;;;;;;;19.40;57.19;93587.22;5084615;28;20069;-90
2022/06/21 06:09:14;;;;;;;13.00;8.63;;;;;;;19.43;57.01;93586.44;5084802;28;20024;-90
2022/06/21 06:11:57;;;;;;;20.50;8.25;;;;;;;19.52;56.86;93585.34;5084183;28;20070;-90
2022/06/21 06:14:29;;;;;;;20.88;8.30;;;;;;;19.62;56.35;93590.06;5084625;28;20049;-90
2022/06/21 06:16:57;;;;;;;14.25;8.05;;;;;;;19.67;56.51;93595.13;5084357;28;20372;-91
2022/06/21 06:19:28;;;;;;;15.75;8.75;;;;;;;19.73;56.79;93599.03;5084324;28;20319;-91
2022/06/21 06:22:06;;;;;;;16.77;8.88;;;;;;;19.87;55.94;93606.47;5083058;28;20342;-90
2022/06/21 06:24:40;;;;;;;18.95;8.50;;;;;;;19.97;54.87;93610.41;5084152;28;20062;-90
2022/06/21 06:27:23;;;;;;;27.42;8.68;;;;;;;20.06;55.38;93616.22;5082947;28;20251;-89
2022/06/21 06:29:51;;;;;;;17.13;8.73;;;;;;;20.09;55.67;93615.47;5084090;28;20228;-90
2022/06/21 06:32:46;;;;;;;17.90;9.15;;;;;;;20.06;54.44;93621.63;5083499;28;20024;-91
2022/06/21 06:35:22;;;;;;;21.50;8.75;;;;;;;20.12;54.29;93620.13;5083495;28;20039;-90
2022/06/21 06:37:47;;;;;;;19.83;8.50;;;;;;;20.19;54.71;93614.75;5084377;28;20047;-89
2022/06/21 06:40:27;;;;;;;19.10;8.18;;;;;;;20.30;54.71;93624.84;5083081;28;20374;-90
2022/06/21 06:43:02;;;;;;;23.83;8.30;;;;;;;20.32;54.47;93617.91;5083991;28;20349;-89
2022/06/21 06:45:47;;;;;;;17.65;7.68;;;;;;;20.34;54.99;93625.63;5084008;28;20023;-91
2022/06/21 06:48:21;;;;;;;18.63;7.75;;;;;;;20.40;54.78;93607.88;5083538;28;20028;-90
2022/06/21 06:50:54;;;;;;;15.68;7.75;;;;;;;20.49;54.29;93604.81;5084068;28;20195;-90
2022/06/21 06:53:34;;;;;;;21.85;8.63;;;;;;;20.60;52.38;93609.13;5083080;28;20016;-90
2022/06/21 06:56:09;;;;;;;11.05;7.40;;;;;;;20.71;53.55;93601.03;5082546;28;20020;-90
2022/06/21 06:58:53;;;;;;;12.55;7.32;;;;;;;20.73;53.66;93600.66;5083894;28;20238;-90
2022/06/21 07:01:50;;;;;;;11.25;6.57;;;;;;;20.90;53.23;93601.84;5083789;28;20013;-89
2022/06/21 07:04:18;;;;;;;16.23;7.20;;;;;;;21.02;52.50;93596.03;5081652;28;20111;-91
2022/06/21 07:06:47;;;;;;;12.95;6.85;;;;;;;21.09;52.62;93587.16;5083612;28;20034;-90
2022/06/21 07:09:25;;;;;;;13.32;6.65;;;;;;;21.13;52.44;93586.00;5083631;28;20046;-90
2022/06/21 07:12:00;;;;;;;21.17;6.20;;;;;;;21.20;52.17;93588.69;5083514;28;20028;-90
2022/06/21 07:14:28;;;;;;;16.90;6.07;;;;;;;21.31;52.49;93580.59;5083627;28;20074;-91
2022/06/21 07:17:35;;;;;;;18.33;7.38;;;;;;;21.51;52.58;93589.09;5083834;28;20028;-91
2022/06/21 07:20:01;;;;;;;15.27;6.55;;;;;;;21.62;54.07;93578.25;5080258;28;20028;-89
2022/06/21 07:22:35;;;;;;;18.52;6.30;;;;;;;21.81;53.00;93579.78;5083512;28;20023;-90
2022/06/21 07:25:18;;;;;;;14.75;4.90;;;;;;;21.99;53.12;93582.44;5082562;28;20020;-90
2022/06/21 07:27:47;;;;;;;17.13;5.03;;;;;;;22.20;53.75;93587.03;5083366;28;20146;-91
2022/06/21 07:30:14;;;;;;;9.88;4.78;;;;;;;22.36;53.89;93592.03;5082077;28;20323;-90
2022/06/21 07:32:54;;;;;;;21.10;6.00;;;;;;;22.45;53.15;93597.81;5083406;28;20406;-91
2022/06/21 07:35:29;;;;;;;14.32;5.28;;;;;;;22.64;51.98;93594.59;5083575;28;20047;-90
2022/06/21 07:38:01;;;;;;;9.98;4.38;;;;;;;22.87;50.49;93597.97;5083263;28;20024;-89
2022/06/21 07:40:37;;;;;;;7.75;3.97;;;;;;;23.15;48.80;93594.34;5082069;28;20028;-89
2022/06/21 07:43:09;;;;;;;9.07;3.90;;;;;;;23.50;46.63;93606.88;5083093;28;20035;-90
2022/06/21 07:45:38;;;;;;;5.22;3.30;;;;;;;23.72;44.51;93607.47;5083107;28;20021;-90
2022/06/21 07:48:23;;;;;;;7.57;3.28;;;;;;;23.87;45.07;93602.69;5082996;28;20044;-90
2022/06/21 07:50:52;;;;;;;5.95;3.35;;;;;;;24.08;46.41;93604.44;5083258;28;20331;-90
2022/06/21 07:53:23;;;;;;;13.32;4.15;;;;;;;24.27;47.14;93611.22;5083182;28;20032;-90
2022/06/21 07:55:57;;;;;;;13.65;4.25;;;;;;;24.28;46.15;93620.91;5083135;28;20024;-90
2022/06/21 07:58:47;;;;;;;10.88;3.67;;;;;;;24.22;45.67;93619.81;5082839;28;20028;-91
2022/06/21 08:07:10;;;;;;;14.40;3.85;;;;;;;24.23;46.71;93630.31;5082945;28;20032;-89
2022/06/21 08:09:39;;;;;;;11.30;3.40;;;;;;;24.26;45.56;93633.41;5082882;28;20323;-90
2022/06/21 08:12:06;;;;;;;6.15;3.65;;;;;;;24.28;47.41;93645.41;5082835;28;20027;-90
2022/06/21 08:14:34;;;;;;;7.55;4.10;;;;;;;24.34;46.20;93648.47;5081908;28;20219;-91
2022/06/21 08:17:38;;;;;;;9.70;4.30;;;;;;;24.45;46.61;93642.94;5081685;28;20021;-91
2022/06/21 08:20:13;;;;;;;11.95;4.18;;;;;;;24.44;47.26;93636.69;5082780;28;20036;-90
2022/06/21 08:22:47;;;;;;;9.23;4.20;;;;;;;24.59;46.48;93638.13;5082903;28;20030;-89
2022/06/21 08:25:30;;;;;;;9.48;4.75;;;;;;;24.70;45.59;93651.59;5082649;28;20107;-90
2022/06/21 08:28:08;;;;;;;;;;;;;;;24.67;46.80;93638.00;5083091;28;20028;-89
2022/06/21 08:30:40;;;;;;;10.07;5.05;;;;;;;24.86;46.57;93651.00;5081099;28;19904;-90
2022/06/21 08:33:12;;;;;;;;;;;;;;;25.05;46.08;93651.53;5083074;28;20021;-90
2022/06/21 08:36:09;;;;;;;6.28;4.53;;;;;;;24.99;45.77;93641.13;5084521;28;19904;-90
2022/06/21 08:38:40;;;;;;;14.25;4.53;;;;;;;25.06;47.00;93650.38;5085926;28;20034;-90
2022/06/21 08:41:53;;;;;;;9.00;5.47;;;;;;;25.01;46.96;93662.50;5086477;28;20039;-91
2022/06/21 08:44:37;;;;;;;11.93;5.07;;;;;;;25.04;47.00;93667.13;5086501;28;20024;-90
2022/06/21 08:47:27;;;;;;;19.92;5.53;;;;;;;24.81;46.47;93648.72;5086244;28;20127;-91
2022/06/21 08:50:12;;;;;;;21.17;5.28;;;;;;;24.76;46.84;93657.38;5086496;28;20028;-90
2022/06/21 08:52:42;;;;;;;15.10;5.47;;;;;;;24.82;46.66;93650.28;5086208;28;20035;-90
2022/06/21 08:55:15;;;;;;;11.75;5.53;;;;;;;24.89;47.50;93647.44;5086379;28;20039;-90
2022/06/21 08:57:56;;;;;;;11.57;5.93;;;;;;;24.87;47.98;93641.63;5085885;28;20023;-89
2022/06/21 09:00:40;;;;;;;14.02;5.80;;;;;;;24.74;48.75;93621.59;5086141;28;20020;-91
2022/06/21 09:03:33;;;;;;;11.32;5.45;;;;;;;24.90;50.08;93629.94;5085736;28;20024;-89
2022/06/21 09:06:26;;;;;;;12.65;6.15;;;;;;;25.01;48.66;93638.75;5085569;28;20033;-90
2022/06/21 09:09:08;;;;;;;11.07;5.72;;;;;;;25.09;49.46;93617.59;5086127;28;20040;-90
2022/06/21 09:12:01;;;;;;;16.55;5.50;;;;;;;25.20;47.92;93620.19;5085712;28;20338;-91
2022/06/21 09:14:39;;;;;;;12.07;5.35;;;;;;;25.27;47.39;93614.63;5085493;28;20021;-90
2022/06/21 09:17:21;;;;;;;8.82;4.93;;;;;;;25.25;48.51;93618.97;5085490;28;20032;-90
2022/06/21 09:19:52;;;;;;;;;;;;;;;25.29;47.62;93615.00;5086130;28;20043;-91
2022/06/21 09:22:27;;;;;;;18.15;5.40;;;;;;;25.25;47.38;93606.09;5085840;28;19904;-91
2022/06/21 09:25:04;;;;;;;13.02;5.47;;;;;;;25.32;48.46;93625.09;5085717;28;20092;-91
2022/06/21 09:27:45;;;;;;;11.30;5.38;;;;;;;25.52;47.21;93613.47;5084354;28;20016;-90
2022/06/21 09:30:23;;;;;;;12.70;5.63;;;;;;;25.58;47.18;93618.03;5084982;28;20028;-90
2022/06/21 09:32:55;;;;;;;11.93;5.03;;;;;;;25.60;46.60;93628.53;5085785;28;20048;-92
2022/06/21 09:35:26;;;;;;;14.32;6.35;;;;;;;25.59;48.24;93597.00;5085690;28;20091;-90
2022/06/21 09:37:58;;;;;;;17.67;5.47;;;;;;;25.71;46.70;93604.59;5085420;28;20028;-90
2022/06/21 09:40:37;;;;;;;15.05;5.85;;;;;;;25.82;49.26;93605.16;5084992;28;20338;-90
2022/06/21 09:43:17;;;;;;;14.18;6.38;;;;;;;26.02;48.90;93602.50;5085143;28;20028;-90
2022/06/21 09:46:06;;;;;;;14.98;6.00;;;;;;;26.22;46.90;93609.94;5084846;28;20341;-90
2022/06/21 09:48:51;;;;;;;11.63;4.72;;;;;;;26.21;45.61;93608.41;5084542;28;20041;-89
2022/06/21 09:51:28;;;;;;;16.30;5.25;;;;;;;26.23;44.52;93604.03;5084850;28;20024;-90
2022/06/21 09:54:09;;;;;;;10.20;6.00;;;;;;;26.31;46.17;93598.47;5084681;28;20040;-89
2022/06/21 09:56:54;;;;;;;13.30;5.47;;;;;;;26.23;45.09;93581.44;5084728;28;20016;-91
2022/06/21 09:59:41;;;;;;;9.13;4.75;;;;;;;26.30;44.67;93596.94;5085477;28;20024;-91
2022/06/21 10:02:26;;;;;;;9.27;5.25;;;;;;;26.08;46.50;93577.44;5084773;28;20032;-91
2022/06/21 10:04:51;;;;;;;13.43;6.03;;;;;;;26.12;46.71;93589.06;5084525;28;20051;-90
2022/06/21 10:07:38;;;;;;;11.60;5.72;;;;;;;26.19;47.53;93595.16;5084517;28;20029;-91
2022/06/21 10:10:18;;;;;;;7.90;5.28;;;;;;;26.25;45.94;93587.25;5084703;28;20021;-91
2022/06/21 10:13:14;;;;;;;9.40;5.38;;;;;;;26.29;47.93;93581.72;5084409;28;20057;-91
2022/06/21 10:15:47;;;;;;;8.57;5.55;;;;;;;26.49;45.53;93587.94;5084518;28;20025;-91
2022/06/21 10:18:57;;;;;;;18.40;6.45;;;;;;;26.54;46.64;93598.41;5084282;28;20040;-91
2022/06/21 10:21:32;;;;;;;14.93;6.32;;;;;;;26.66;45.03;93598.97;5050982;28;20094;-91
2022/06/21 10:24:22;;;;;;;13.48;5.90;;;;;;;26.69;45.37;93592.66;5084472;28;20031;-91
2022/06/21 10:27:12;;;;;;;15.50;5.43;;;;;;;26.64;44.15;93590.41;5084299;28;20031;-90
2022/06/21 10:29:47;;;;;;;9.18;5.40;;;;;;;26.44;45.13;93599.38;5084131;28;20016;-90
2022/06/21 10:32:23;;;;;;;7.22;4.78;;;;;;;26.06;43.52;93605.16;5083758;28;20025;-89
2022/06/21 10:35:03;;;;;;;6.50;4.68;;;;;;;26.01;44.82;93622.81;5083630;28;20027;-88
2022/06/21 10:37:43;;;;;;;6.85;4.55;;;;;;;26.15;43.67;93610.84;5083934;28;20020;-89
2022/06/21 10:40:27;;;;;;;12.20;5.07;;;;;;;26.30;44.22;93575.09;5083784;28;20048;-89
2022/06/21 10:43:08;;;;;;;10.18;5.22;;;;;;;26.46;44.84;93591.53;5082763;28;20027;-89
2022/06/21 10:45:53;;;;;;;9.98;5.50;;;;;;;26.44;43.88;93580.25;5083514;28;20027;-89
2022/06/21 10:48:36;;;;;;;12.35;5.32;;;;;;;26.57;44.06;93588.56;5083499;28;20063;-90
2022/06/21 10:51:10;;;;;;;23.35;5.22;;;;;;;26.59;43.16;93583.50;5083581;28;20025;-90
2022/06/21 10:53:51;;;;;;;7.43;5.32;;;;;;;26.45;43.55;93584.50;5083588;28;20028;-89
2022/06/21 11:03:02;;;;;;;14.93;6.18;;;;;;;26.78;42.03;93623.69;5083381;28;20035;-90
2022/06/21 11:05:42;;;;;;;12.18;4.82;;;;;;;26.76;43.52;93603.44;5082334;28;20315;-89
2022/06/21 11:08:27;;;;;;;14.38;6.13;;;;;;;26.80;44.24;93606.88;5082069;28;20078;-89
2022/06/21 11:11:21;;;;;;;10.27;5.57;;;;;;;26.71;44.87;93609.41;5083254;28;20088;-89
2022/06/21 11:14:12;;;;;;;14.23;5.57;;;;;;;26.82;45.31;93609.94;5083413;28;20025;-90
2022/06/21 11:16:58;;;;;;;12.23;4.95;;;;;;;26.89;44.62;93601.59;5080447;28;20028;-88
2022/06/21 11:19:30;;;;;;;7.18;5.60;;;;;;;26.91;44.48;93607.41;5079121;28;20095;-89
2022/06/21 11:22:09;;;;;;;;;;;;;;;27.04;44.74;93612.22;5082654;28;20032;-89
2022/06/21 11:24:54;;;;;;;12.10;5.72;;;;;;;27.06;44.53;93615.31;5083214;28;19932;-89
2022/06/21 11:27:38;;;;;;;10.73;5.47;;;;;;;27.05;45.08;93628.22;5083084;28;20044;-89
2022/06/21 11:30:04;;;;;;;13.90;5.72;;;;;;;26.92;45.25;93617.16;5083070;28;20040;-89
2022/06/21 11:32:34;;;;;;;14.45;6.65;;;;;;;26.75;45.72;93621.81;5082901;28;20319;-89
2022/06/21 11:35:14;;;;;;;9.57;5.20;;;;;;;26.84;45.66;93598.59;5081895;28;20082;-89
2022/06/21 11:38:14;;;;;;;9.27;5.88;;;;;;;27.06;46.27;93612.56;5083060;28;20298;-89
2022/06/21 11:40:42;;;;;;;11.68;6.03;;;;;;;27.06;42.88;93607.88;5083058;28;20028;-90
2022/06/21 11:43:40;;;;;;;14.02;6.18;;;;;;;27.19;43.21;93618.91;5083032;28;20096;-90
2022/06/21 11:46:20;;;;;;;10.57;5.50;;;;;;;27.22;42.56;93612.59;5075324;28;20039;-90
2022/06/21 11:48:55;;;;;;;9.13;5.57;;;;;;;27.35;43.66;93604.50;5083072;28;20056;-89
2022/06/21 11:51:26;;;;;;;14.90;5.63;;;;;;;27.34;42.93;93602.97;5083529;28;20028;-89
2022/06/21 11:54:09;;;;;;;13.93;5.43;;;;;;;27.40;43.16;93596.56;5084311;28;20020;-91
2022/06/21 11:57:11;;;;;;;11.85;5.70;;;;;;;27.51;41.00;93603.75;5084006;28;20040;-92
2022/06/21 11:59:58;;;;;;;14.35;6.13;;;;;;;27.61;43.19;93605.44;5076811;28;20227;-91
2022/06/21 12:02:47;;;;;;;7.32;5.07;;;;;;;27.73;43.55;93593.81;5083823;28;20074;-89
2022/06/21 12:05:30;;;;;;;10.07;5.93;;;;;;;27.79;42.31;93594.81;5083529;28;20033;-90
2022/06/21 12:08:13;;;;;;;10.40;5.00;;;;;;;27.83;42.63;93583.78;5082730;28;20039;-89
2022/06/21 12:11:10;;;;;;;7.57;5.57;;;;;;;27.97;42.73;93607.34;5084724;28;20020;-89
2022/06/21 12:13:52;;;;;;;12.68;4.70;;;;;;;27.99;40.45;93591.25;5084423;28;20077;-90
2022/06/21 12:16:32;;;;;;;10.05;5.90;;;;;;;28.09;41.34;93590.19;5086921;28;20334;-90
2022/06/21 12:19:14;;;;;;;10.70;5.63;;;;;;;28.12;39.30;93589.31;5088072;28;20087;-89
2022/06/21 12:21:47;;;;;;;10.18;5.70;;;;;;;28.11;40.89;93590.53;5087010;28;20082;-89
2022/06/21 12:24:16;;;;;;;8.57;5.35;;;;;;;28.17;40.78;93583.31;5086778;28;20044;-89
2022/06/21 12:26:43;;;;;;;7.28;4.95;;;;;;;28.27;42.89;93578.75;5086471;28;20024;-88
2022/06/21 12:29:18;;;;;;;10.60;5.05;;;;;;;28.42;40.73;93579.13;5085817;28;20063;-89